createdAt,value
2023-05-05T00:02:54.606Z,336.34
2023-05-05T00:08:14.478Z,336.68
2023-05-05T00:13:06.921Z,336.34
2023-05-05T00:18:06.840Z,340.48
2023-05-05T00:23:06.752Z,342.95
2023-05-05T00:28:06.656Z,346.17
2023-05-05T00:33:06.658Z,345.81
2023-05-05T00:38:06.520Z,348.35
2023-05-05T00:43:06.460Z,344.01
2023-05-05T00:48:06.463Z,344.01
2023-05-05T00:53:06.355Z,347.98
2023-05-05T00:58:06.289Z,345.81
2023-05-05T01:03:06.317Z,345.81
2023-05-05T01:08:06.128Z,346.89
2023-05-05T01:13:06.154Z,351.30
2023-05-05T01:18:06.040Z,350.56
2023-05-05T01:23:06.032Z,352.05
2023-05-05T01:28:05.864Z,353.55
2023-05-05T01:33:05.815Z,352.79
2023-05-05T01:38:05.758Z,350.93
2023-05-05T01:43:05.669Z,353.17
2023-05-05T01:48:05.647Z,354.30
2023-05-05T01:53:05.573Z,353.55
2023-05-05T01:58:05.459Z,354.30
2023-05-05T02:03:05.473Z,355.06
2023-05-05T02:08:05.330Z,354.68
2023-05-05T02:13:05.334Z,355.82
2023-05-05T02:18:05.348Z,355.82
2023-05-05T02:23:05.149Z,356.20
2023-05-05T02:28:05.062Z,353.17
2023-05-05T02:33:05.041Z,356.20
2023-05-05T02:38:04.955Z,353.92
2023-05-05T02:43:05.013Z,353.55
2023-05-05T02:48:04.833Z,355.06
2023-05-05T02:53:04.735Z,353.55
2023-05-05T02:58:04.684Z,352.79
2023-05-05T03:03:04.648Z,355.06
2023-05-05T03:08:04.544Z,356.20
2023-05-05T03:13:04.516Z,354.68
2023-05-05T03:18:04.420Z,355.82
2023-05-05T03:23:04.349Z,357.74
2023-05-05T03:28:04.270Z,358.90
2023-05-05T03:33:04.253Z,359.29
2023-05-05T03:38:04.127Z,359.29
2023-05-05T03:43:04.081Z,359.29
2023-05-05T03:48:04.054Z,356.20
2023-05-05T03:53:03.978Z,357.74
2023-05-05T03:58:03.880Z,357.74
2023-05-05T04:03:04.023Z,356.20
2023-05-05T04:08:03.740Z,355.44
2023-05-05T04:13:03.732Z,354.68
2023-05-05T04:18:18.211Z,353.92
2023-05-05T04:23:10.574Z,351.67
2023-05-05T04:28:10.716Z,355.44
2023-05-05T04:33:10.464Z,353.17
2023-05-05T04:38:10.398Z,354.68
2023-05-05T04:43:10.328Z,351.30
2023-05-05T04:48:10.334Z,350.56
2023-05-05T04:53:10.200Z,346.53
2023-05-05T04:58:10.130Z,345.45
2023-05-05T05:03:10.173Z,342.59
2023-05-05T05:08:09.997Z,345.09
2023-05-05T05:13:12.424Z,342.95
2023-05-05T05:18:09.870Z,340.83
2023-05-05T05:23:09.983Z,340.14
2023-05-05T05:28:10.998Z,336.00
2023-05-05T05:33:09.693Z,331.64
2023-05-05T05:38:09.568Z,329.33
2023-05-05T05:43:09.531Z,326.42
2023-05-05T05:48:09.570Z,321.67
2023-05-05T05:53:09.383Z,317.97
2023-05-05T05:58:09.330Z,316.15
2023-05-05T06:03:09.395Z,314.06
2023-05-05T06:08:09.183Z,308.51
2023-05-05T06:13:09.226Z,303.43
2023-05-05T06:18:09.101Z,303.71
2023-05-05T06:23:08.977Z,300.14
2023-05-05T06:28:08.915Z,296.91
2023-05-05T06:33:09.044Z,294.80
2023-05-05T06:38:08.800Z,295.07
2023-05-05T06:43:08.721Z,288.65
2023-05-05T06:48:08.684Z,281.07
2023-05-05T06:53:08.585Z,262.61
2023-05-05T06:58:08.536Z,248.08
2023-05-05T07:03:08.535Z,235.40
2023-05-05T07:08:09.091Z,221.57
2023-05-05T07:13:08.425Z,209.54
2023-05-05T07:18:08.310Z,195.24
2023-05-05T07:23:08.590Z,184.83
2023-05-05T07:28:08.152Z,178.95
2023-05-05T07:33:08.152Z,174.15
2023-05-05T07:38:08.802Z,171.49
2023-05-05T07:43:07.955Z,170.97
2023-05-05T07:48:07.952Z,171.15
2023-05-05T07:53:14.578Z,171.32
2023-05-05T07:58:08.775Z,170.80
2023-05-05T08:03:10.704Z,169.43
2023-05-05T08:08:07.645Z,169.26
2023-05-05T08:13:07.564Z,169.09
2023-05-05T08:18:07.654Z,167.74
2023-05-05T08:23:31.163Z,167.24
2023-05-05T08:28:23.610Z,166.91
2023-05-05T08:33:23.618Z,165.44
2023-05-05T08:38:23.459Z,165.44
2023-05-05T08:43:23.410Z,165.28
2023-05-05T08:48:23.331Z,163.52
2023-05-05T08:53:23.263Z,162.10
2023-05-05T08:58:23.190Z,160.56
2023-05-05T09:03:23.165Z,158.45
2023-05-05T09:08:23.074Z,156.83
2023-05-05T09:13:23.004Z,155.53
2023-05-05T09:18:22.922Z,154.96
2023-05-05T09:23:22.891Z,153.41
2023-05-05T09:28:22.789Z,151.35
2023-05-05T09:33:22.783Z,152.58
2023-05-05T09:38:22.680Z,149.87
2023-05-05T09:43:23.420Z,148.42
2023-05-05T09:48:22.678Z,145.98
2023-05-05T09:53:22.490Z,142.89
2023-05-05T09:58:22.524Z,138.55
2023-05-05T10:03:22.402Z,135.00
2023-05-05T10:08:22.299Z,132.98
2023-05-05T10:13:22.222Z,131.02
2023-05-05T10:18:22.303Z,127.94
2023-05-05T10:23:22.106Z,125.00
2023-05-05T10:28:22.048Z,122.82
2023-05-05T10:38:22.731Z,119.17
2023-05-05T10:43:21.870Z,116.14
2023-05-05T10:48:21.815Z,114.64
2023-05-05T10:53:21.737Z,114.10
2023-05-05T10:58:21.675Z,115.50
2023-05-05T11:03:21.730Z,117.11
2023-05-05T11:08:21.540Z,120.19
2023-05-05T11:13:21.631Z,123.72
2023-05-05T11:18:21.420Z,126.50
2023-05-05T11:23:21.340Z,130.11
2023-05-05T11:28:21.275Z,132.35
2023-05-05T11:33:21.212Z,133.40
2023-05-05T11:38:21.164Z,134.03
2023-05-05T11:43:21.167Z,135.00
2023-05-05T11:48:21.085Z,137.53
2023-05-05T11:53:20.970Z,138.21
2023-05-05T11:58:20.869Z,138.21
2023-05-05T12:03:20.986Z,139.46
2023-05-05T12:08:20.751Z,140.27
2023-05-05T12:13:20.780Z,139.46
2023-05-05T12:18:20.598Z,142.40
2023-05-05T12:23:20.580Z,144.35
2023-05-05T12:28:20.475Z,147.38
2023-05-05T12:33:20.417Z,152.71
2023-05-05T12:38:21.264Z,155.96
2023-05-05T12:43:20.430Z,162.41
2023-05-05T12:48:20.209Z,172.19
2023-05-05T12:53:20.155Z,177.44
2023-05-05T12:58:20.071Z,180.10
2023-05-05T13:03:20.215Z,183.82
2023-05-05T13:08:19.983Z,184.63
2023-05-05T13:13:19.968Z,183.82
2023-05-05T13:18:19.823Z,185.52
2023-05-05T13:23:19.779Z,186.56
2023-05-05T13:28:19.693Z,186.46
2023-05-05T13:33:19.645Z,186.26
2023-05-05T13:38:19.574Z,185.62
2023-05-05T13:43:19.512Z,186.88
2023-05-05T13:48:19.426Z,188.68
2023-05-05T13:53:19.388Z,190.74
2023-05-05T13:58:19.318Z,193.53
2023-05-05T14:03:19.324Z,195.46
2023-05-05T14:08:19.222Z,199.94
2023-05-05T14:13:19.246Z,202.13
2023-05-05T14:18:19.037Z,204.37
2023-05-05T14:23:19.003Z,207.31
2023-05-05T14:28:18.907Z,208.09
2023-05-05T14:33:18.870Z,209.40
2023-05-05T14:38:18.813Z,209.40
2023-05-05T14:43:18.705Z,209.27
2023-05-05T14:48:18.675Z,210.07
2023-05-05T14:53:18.721Z,210.87
2023-05-05T14:58:18.528Z,212.76
2023-05-05T15:03:18.607Z,214.13
2023-05-05T15:08:18.429Z,213.45
2023-05-05T15:13:18.381Z,214.27
2023-05-05T15:18:18.295Z,215.67
2023-05-05T15:23:18.217Z,215.11
2023-05-05T15:28:18.122Z,214.13
2023-05-05T15:33:18.077Z,217.79
2023-05-05T15:38:18.053Z,218.07
2023-05-05T15:43:17.925Z,220.25
2023-05-05T15:48:17.844Z,219.23
2023-05-05T15:53:17.854Z,218.94
2023-05-05T15:58:17.742Z,217.93
2023-05-05T16:03:17.836Z,216.51
2023-05-05T16:08:17.646Z,217.65
2023-05-05T16:13:17.612Z,216.93
2023-05-05T16:18:17.487Z,217.22
2023-05-05T16:23:17.430Z,216.65
2023-05-05T16:28:17.298Z,217.08
2023-05-05T16:33:17.306Z,216.93
2023-05-05T16:38:17.164Z,216.23
2023-05-05T16:43:17.139Z,218.94
2023-05-05T16:48:17.044Z,220.39
2023-05-05T16:53:17.271Z,219.52
2023-05-05T16:58:16.890Z,219.52
2023-05-05T17:03:16.905Z,216.93
2023-05-05T17:08:16.824Z,216.09
2023-05-05T17:13:16.824Z,216.79
2023-05-05T17:18:16.633Z,214.13
2023-05-05T17:23:16.612Z,214.97
2023-05-05T17:28:16.532Z,217.50
2023-05-05T17:33:16.456Z,218.79
2023-05-05T17:38:16.362Z,224.57
2023-05-05T17:43:16.300Z,227.65
2023-05-05T17:48:16.286Z,228.12
2023-05-05T17:53:16.200Z,229.54
2023-05-05T17:58:16.140Z,230.50
2023-05-05T18:03:16.227Z,229.54
2023-05-05T18:08:15.994Z,229.86
2023-05-05T18:13:16.003Z,227.49
2023-05-05T18:18:15.851Z,228.59
2023-05-05T18:23:15.815Z,227.65
2023-05-05T18:28:15.749Z,230.50
2023-05-05T18:33:15.685Z,232.93
2023-05-05T18:38:15.621Z,234.74
2023-05-05T18:43:15.526Z,235.74
2023-05-05T18:48:15.475Z,237.76
2023-05-05T18:53:15.753Z,238.28
2023-05-05T18:58:15.316Z,243.35
2023-05-05T19:03:15.245Z,247.89
2023-05-05T19:08:15.263Z,253.38
2023-05-05T19:13:15.201Z,262.61
2023-05-05T19:18:15.061Z,267.26
2023-05-05T19:23:14.990Z,271.41
2023-05-05T19:28:14.918Z,274.56
2023-05-05T19:33:14.971Z,279.88
2023-05-05T19:38:14.811Z,280.12
2023-05-05T19:43:14.723Z,283.71
2023-05-05T19:48:14.679Z,285.91
2023-05-05T19:53:14.630Z,287.90
2023-05-05T19:58:14.899Z,287.40
2023-05-05T20:03:14.562Z,287.40
2023-05-05T20:08:14.403Z,284.44
2023-05-05T20:13:14.372Z,286.90
2023-05-05T20:18:14.290Z,284.93
2023-05-05T20:23:14.175Z,282.99
2023-05-05T20:28:14.249Z,281.55
2023-05-05T20:33:14.068Z,280.59
2023-05-05T20:38:13.990Z,280.36
2023-05-05T20:43:13.953Z,278.47
2023-05-05T20:48:13.852Z,278.47
2023-05-05T20:53:13.833Z,277.54
2023-05-05T20:58:13.748Z,278.01
2023-05-05T21:03:13.717Z,278.71
2023-05-05T21:08:13.585Z,279.18
2023-05-05T21:13:13.556Z,277.54
2023-05-05T21:18:13.473Z,278.47
2023-05-05T21:23:13.386Z,278.24
2023-05-05T21:28:13.319Z,276.62
2023-05-05T21:33:13.305Z,277.08
2023-05-05T21:38:13.200Z,278.01
2023-05-05T21:43:13.200Z,277.08
2023-05-05T21:48:13.101Z,275.70
2023-05-05T21:53:13.001Z,275.47
2023-05-05T21:58:12.941Z,277.77
2023-05-05T22:03:12.925Z,276.62
2023-05-05T22:08:12.856Z,277.77
2023-05-05T22:13:12.844Z,274.56
2023-05-05T22:18:12.680Z,274.56
2023-05-05T22:23:12.600Z,278.01
2023-05-05T22:28:12.533Z,278.71
2023-05-05T22:33:12.459Z,281.07
2023-05-05T22:38:12.403Z,278.24
2023-05-05T22:43:12.334Z,277.31
2023-05-05T22:48:12.248Z,281.55
2023-05-05T22:53:12.211Z,278.94
2023-05-05T22:58:12.124Z,281.07
2023-05-05T23:03:12.080Z,280.83
2023-05-05T23:08:11.993Z,281.31
2023-05-05T23:13:11.918Z,282.51
2023-05-05T23:18:11.879Z,282.99
2023-05-05T23:23:11.772Z,286.16
2023-05-05T23:28:11.753Z,286.65
2023-05-05T23:33:11.667Z,287.90
2023-05-05T23:38:11.610Z,287.15
2023-05-05T23:43:11.529Z,287.40
2023-05-05T23:48:11.550Z,288.40
2023-05-05T23:53:11.393Z,285.42
2023-05-05T23:58:11.350Z,285.67
